Aviation Digital Data Service (ADDS)

Output produced by METARs form (1440 UTC 30 March 2017)
found at http://www.aviationweather.gov/adds/metars/
 
KBOS 301354Z 35011G17KT 10SM FEW060 FEW250 04/M07 A3023 RMK AO2 SLP234 T00441067
KBOS 301241Z 3013/3118 34012KT P6SM FEW060 
     FM301800 10010KT P6SM SCT150 
     FM310000 03006KT P6SM BKN150 
     FM311700 09007KT 1SM -SN OVC030
       
KLGA 301351Z 04010KT 10SM SCT160 BKN250 06/M06 A3026 RMK AO2 SLP248 T00611061
KLGA 301402Z 3014/3112 04008KT P6SM BKN250 
     FM301900 18007KT P6SM FEW060 BKN150 
     FM310600 15005KT P6SM BKN030 
     FM311000 11009KT 5SM -RA BKN010
       
KJFK 301351Z 04013KT 10SM SCT160 BKN300 06/M06 A3028 RMK AO2 SLP253 T00611056 $
KJFK 301403Z 3014/3118 03009KT P6SM BKN250 
     FM301800 19007KT P6SM FEW060 BKN150 
     FM310600 15006KT P6SM BKN030 
     FM311000 11010KT 5SM -RA BKN010 
     FM311500 11014G20KT 2SM -RA BKN005
       
KEWR 301351Z 02006KT 10SM BKN160 BKN250 07/M05 A3027 RMK AO2 SLP251 T00671050
KEWR 301401Z 3014/3118 03007KT P6SM BKN250 
     FM301900 15007KT P6SM FEW060 BKN150 
     FM310500 11005KT P6SM BKN030 
     FM310900 11008KT 5SM -RA BKN010 
     FM311400 11013G20KT 2SM -RA BKN005
       
KPHL 301354Z 10007KT 10SM BKN150 BKN280 08/M04 A3028 RMK AO2 SLP252 T00781039 $
KPHL 301137Z 3012/3118 05006KT P6SM SCT180 BKN250 
     FM301600 10005KT P6SM BKN180 
     FM301800 16006KT P6SM SCT090 BKN150 
     FM310000 13007KT P6SM OVC045 
     PROB30 3103/3106 5SM -RA OVC035 
     FM310600 10011KT 6SM -RA OVC020 
     FM311300 09014KT 2SM RA BR OVC009
       
KBWI 301354Z 11006KT 10SM OVC060 07/M02 A3027 RMK AO2 SLP250 T00671017
KBWI 301431Z 3015/3118 10005KT P6SM OVC070 
     FM310600 11006KT 6SM -RA BR OVC025 
     FM310900 10006KT 5SM -RA BR OVC008 
     FM311200 10008KT 3SM RA BR OVC006
       
KDCA 301352Z 09007KT 10SM OVC060 09/M01 A3027 RMK AO2 SLP250 T00891006
KDCA 301431Z 3015/3112 06007KT P6SM OVC070 
     FM301800 13006KT P6SM OVC045 
     FM310600 13006KT 6SM -RA BR OVC025 
     FM310900 11006KT 5SM -RA BR OVC010
       
KIAD 301352Z 14007KT 10SM OVC055 08/M02 A3024 RMK AO2 SLP241 T00831022
KIAD 301431Z 3015/3118 12004KT P6SM OVC050 
     FM302000 15008KT P6SM OVC045 
     FM310600 14006KT 6SM -RA BR OVC025 
     FM310900 11008KT 4SM RA BR OVC007 
     FM311200 12007KT 3SM RA BR OVC005
       
KCLT 301352Z 11012KT 5SM HZ OVC007 15/12 A3010 RMK AO2 SLP188 T01500122
KCLT 301127Z 3012/3112 12008KT P6SM VCSH OVC012 
     FM301600 10008KT 4SM -RA BR OVC007 
     FM302100 13012KT 4SM -SHRA OVC015 
     TEMPO 3021/3101 3SM TSRA OVC010CB 
     FM310100 14008KT 3SM SHRA BR OVC008 
     FM310900 18010KT 4SM -SHRA BR OVC007
       
KATL 301352Z VRB03KT 10SM FEW150 SCT200 BKN250 19/13 A3002 RMK AO2 SLP157 T01940128
KATL 301403Z 3014/3118 22008KT P6SM FEW070 SCT250 
     FM301700 20008G16KT P6SM SCT050 
     FM302200 20010G20KT P6SM VCSH BKN050 
     FM310300 14008KT 5SM -SHRA BKN030 
     PROB30 3104/3108 VRB20G30KT 3SM TSRA BKN020CB 
     FM310800 23010KT P6SM VCSH OVC015 
     FM311500 27010KT P6SM OVC025
       
KTPA 301353Z 14006KT 10SM FEW250 24/16 A3000 RMK AO2 SLP158 T02440161
KTPA 301120Z 3012/3112 14004KT P6SM FEW250 
     FM301400 17007KT P6SM FEW250 
     FM301800 20011KT P6SM FEW050 SCT250 
     FM310200 18006KT P6SM BKN250
       
KMCO 301353Z 15012KT 10SM SCT300 25/17 A3002 RMK AO2 SLP164 T02500172
KMCO 301122Z 3012/3112 VRB04KT P6SM FEW050 
     FM301400 17009KT P6SM SCT050 
     FM310000 16007KT P6SM SCT050 SCT100
       
KMIA 301353Z COR 13012G21KT 10SM SCT033 26/17 A3002 RMK AO2 SLP167 T02620172 $
KMIA 301125Z 3012/3112 12005KT P6SM FEW030 SCT050 
     FM301400 14008KT P6SM SCT035 
     FM301700 15013G18KT P6SM SCT040 
     FM310000 16007KT P6SM FEW030 SCT050
       
KFLL 301353Z 14016G19KT 10SM FEW030 SCT037 26/17 A3002 RMK AO2 SLP164 T02560167
KFLL 301125Z 3012/3112 14006KT P6SM FEW035 
     FM301400 14010KT P6SM SCT035 
     FM301700 15013G18KT P6SM SCT040 
     FM310000 16007KT P6SM FEW030 SCT050
       
KDTW 301435Z 08007G17KT 1 3/4SM +RA BR SCT010 BKN040 OVC075 03/02 A3003 RMK AO2 TWR VIS 2 1/2 LTG DSNT SW P0019 T00330022
KDTW 301344Z 3014/3118 09015G25KT 2SM RA BR OVC040 
     TEMPO 3014/3015 6SM TSRA OVC040CB 
     FM301600 07014G22KT 4SM -SHRA BR BKN016 OVC030 
     FM302000 06011G18KT 3SM SHRA BR BKN008 OVC012 
     TEMPO 3021/3024 2SM TSRA BR BKN006 OVC010CB 
     FM310300 05006KT 2SM -DZ BR OVC005 
     FM311000 03004KT 1 1/2SM RA BR OVC004
       
KORD 301351Z 09013G21KT 8SM -RA OVC007 06/04 A2977 RMK AO2 SLP082 P0004 T00560039
KORD 301120Z 3012/3118 07014G20KT 3SM -SHRA SCT004 OVC007 
     FM301800 06013KT 3SM -SHRA OVC005 
     TEMPO 3018/3020 2SM -TSRA BKN005 OVC020CB 
     FM302200 01010KT 2SM -RADZ SCT003 OVC005 
     FM310000 33009KT 3SM -DZ OVC003 
     FM311500 35012KT 6SM BR OVC008
       
KMDW 301415Z 09009G21KT 8SM BKN010 OVC013 07/05 A2976 RMK AO2 T00670050
KMDW 301120Z 3012/3112 07016G24KT 3SM -SHRA SCT004 OVC007 
     FM301800 06013KT 3SM -SHRA OVC005 
     TEMPO 3018/3020 2SM -TSRA BKN005 OVC020CB 
     FM302200 01010KT 2SM -RADZ SCT003 OVC005 
     FM310000 33009KT 3SM -DZ OVC003
       
KMSP 301413Z 07012KT 10SM BKN016 BKN040 OVC200 04/01 A2991 RMK AO2 T00390011
KMSP 301139Z 3012/3118 07013G20KT P6SM OVC015 
     FM301500 06013G20KT P6SM OVC025 
     FM302100 05008KT P6SM OVC040 
     FM310800 01006KT P6SM BKN050
       
KMEM 301436Z 20022G29KT 10SM SCT024 21/16 A2971 RMK AO2 PK WND 20030/1422 T02110156
KMEM 301120Z 3012/3112 19012G18KT P6SM VCSH FEW020 BKN060 WS020/20050KT 
     TEMPO 3012/3016 20020G30KT 6SM -RA BKN045 
     FM301600 20016G25KT P6SM VCTS SCT035CB BKN050 
     FM302000 23014G22KT P6SM SCT040 BKN150 
     FM310000 26008KT P6SM BKN040
       
KDFW 301353Z 25011KT 10SM FEW250 14/07 A2986 RMK AO2 SLP105 T01390072 $
KDFW 301130Z 3012/3118 28011KT P6SM FEW040 SCT250 
     FM301500 29016KT P6SM FEW250 
     FM302300 23007KT P6SM FEW250 
     FM310600 11006KT P6SM FEW250 
     FM311500 19011KT P6SM SCT250
       
KIAH 301353Z VRB03KT 10SM BKN190 17/09 A2990 RMK AO2 SLP123 T01670089
KIAH 301213Z 3012/3118 31013KT P6SM BKN200 
     FM310000 VRB03KT P6SM SKC
       
KDEN 301353Z 21009KT 10SM SCT120 BKN200 04/M02 A2981 RMK AO2 SLP076 T00441017
KDEN 301405Z 3014/3118 19010KT P6SM FEW120 BKN200 
     FM301700 14011KT P6SM FEW060 SCT120 BKN150 
     FM310200 09010KT P6SM SCT060 BKN100 
     FM310900 15012KT P6SM VCSH SCT060 OVC100 
     FM311100 31006KT 3/4SM BR VCSH BKN007 OVC012 
     FM311700 07010KT 5SM -SHRA BKN012 OVC020
       
KSLC 301354Z 16011KT 10SM FEW050 SCT075 BKN090 11/02 A2978 RMK AO2 SLP060 SH DSNT NE AND SW-NW T01060017
KSLC 301433Z 3015/3118 17011KT P6SM -SHRA SCT040 BKN060 
     FM301700 17015G24KT P6SM VCSH SCT040 BKN070 
     FM302200 32012G24KT 6SM -RA SCT020 BKN040 OVC060 
     FM310100 33013KT 6SM -RA BR SCT015 BKN030 OVC050 
     FM310700 34009KT P6SM VCSH SCT020 BKN040
       
KSEA 301353Z 20006KT 10SM BKN008 BKN014 OVC022 06/05 A3010 RMK AO2 SLP199 T00610050
KSEA 301335Z 3014/3118 19007KT P6SM VCSH SCT010 BKN015 
     TEMPO 3014/3016 BKN008 OVC015 
     FM301800 22013KT P6SM VCSH BKN019 
     FM302100 24010KT P6SM BKN030 
     FM302300 29008KT P6SM BKN050 
     FM310400 12005KT P6SM BKN045
       
KSFO 301356Z 28019G25KT 10SM FEW018 11/07 A3011 RMK AO2 PK WND 28034/1258 SLP196 T01060067
KSFO 301327Z 3013/3118 29021G30KT P6SM FEW020 
     FM301400 28024G31KT P6SM FEW020 
     FM302200 30026G34KT P6SM FEW030 SCT250 
     FM310500 29020G28KT P6SM FEW015 SCT030 SCT250 
     FM310900 30016G22KT P6SM SKC 
     FM311500 33015KT P6SM FEW150
       
KLAX 301353Z 10003KT 10SM FEW018 14/13 A2995 RMK AO2 SLP138 T01390128
KLAX 301400Z 3014/3118 VRB03KT P6SM SCT018 
     FM301700 25010KT P6SM SCT250 
     FM302100 27020G30KT P6SM SCT250 
     FM310300 33010KT P6SM SKC 
     FM310700 36015G22KT P6SM SKC 
     FM311000 36008KT P6SM SKC
       
KSAN 301351Z 00000KT 10SM FEW005 FEW250 14/07 A2997 RMK AO2 SLP149 T01440067
KSAN 301129Z 3012/3118 18005KT P6SM VCFG SCT005 
     TEMPO 3013/3016 4SM BR BKN004 
     FM301800 20010KT P6SM SCT010 SCT015 
     FM302300 27012KT P6SM SCT015 SCT020 
     TEMPO 3023/3103 BKN018 
     FM310300 28008KT P6SM BKN025 
     FM311000 VRB04KT P6SM SCT025
       
KLAS 301356Z 00000KT 10SM BKN250 14/M01 A2980 RMK AO2 SLP077 T01391011
KLAS 301139Z 3012/3112 VRB05KT P6SM SCT250 
     FM301700 20011G17KT P6SM SCT250 
     FM302000 25028G40KT P6SM SCT250 
     FM302300 33032G44KT P6SM SCT150 
     FM310200 33027G35KT P6SM SCT150 
     FM310900 33020G28KT P6SM SCT100 BKN150
       
KPHX 301351Z 09007KT 10SM FEW250 15/01 A2991 RMK AO2 SLP116 T01500006
KPHX 301126Z 3012/3112 10006KT P6SM SKC 
     FM302000 21010G18KT P6SM FEW250 
     FM302200 24016G26KT P6SM FEW250 
     FM310600 26010KT P6SM FEW250
       
KSDF 301356Z 13006KT 9SM SCT060 BKN090 OVC150 17/11 A2976 RMK AO2 TSB29E44 SLP074 TS MOV NE T01720106
KSDF 301120Z 3012/3118 13010KT P6SM BKN250 
     FM301400 16014KT P6SM BKN060 
     FM301600 17015G27KT P6SM OVC035 
     FM302300 20013G22KT P6SM VCTS OVC035CB 
     TEMPO 3101/3104 4SM -TSRA BKN025CB 
     FM310400 23010KT P6SM -SHRA VCTS BKN035CB 
     FM310600 25008KT P6SM BKN030
       
KIND 301354Z 10009KT 10SM FEW065 SCT180 OVC250 13/09 A2975 RMK AO2 LTG DSNT NW SLP072 T01280089
KIND 301410Z 3014/3118 11007KT P6SM OVC060 
     FM301600 14007KT 6SM SHRA OVC050 
     TEMPO 3016/3019 4SM TS OVC025CB 
     FM301900 17010KT P6SM -SHRA VCTS OVC050CB 
     FM310300 17005KT P6SM VCTS BKN090CB 
     FM310600 20006KT P6SM BKN035 
     FM311200 23007KT P6SM OVC008